Time;durP1;ratioP1;P1;durP2;ratioP2;P2;SDS_P1;SDS_P2;PMS_P1;PMS_P2;Temp;Humidity;BMP_temperature;BMP_pressure;BME280_temperature;BME280_humidity;BME280_pressure;Samples;Min_cycle;Max_cycle;Signal;HPM_P1;HPM_P2
2023/10/31 00:01:58;;;;;;;18.88;7.68;;;;;;;10.34;100.00;99498.47;5009621;28;20129;-61
2023/10/31 00:04:24;;;;;;;16.33;7.72;;;;;;;10.36;100.00;99514.19;4991981;28;20125;-60
2023/10/31 00:06:49;;;;;;;14.48;7.20;;;;;;;10.34;100.00;99510.75;4993563;28;20042;-62
2023/10/31 00:09:16;;;;;;;20.10;6.88;;;;;;;10.00;100.00;99446.75;4992951;28;20082;-61
2023/10/31 00:11:42;;;;;;;18.20;7.13;;;;;;;10.37;100.00;99514.09;4990105;28;20482;-60
2023/10/31 00:14:08;;;;;;;15.73;7.18;;;;;;;9.99;100.00;99447.69;4991320;28;20382;-60
2023/10/31 00:16:33;;;;;;;16.50;7.97;;;;;;;9.94;100.00;99444.44;5007040;28;20049;-60
2023/10/31 00:18:59;;;;;;;15.40;7.40;;;;;;;10.01;100.00;99451.06;4972969;28;20039;-60
2023/10/31 00:21:24;;;;;;;16.60;7.45;;;;;;;10.40;100.00;99513.94;4992682;28;20050;-60
2023/10/31 00:23:49;;;;;;;13.82;7.25;;;;;;;10.41;100.00;99506.88;4992474;28;20053;-60
2023/10/31 00:26:15;;;;;;;14.48;6.35;;;;;;;10.03;100.00;99440.50;5006928;28;20035;-61
2023/10/31 00:28:40;;;;;;;13.55;6.20;;;;;;;9.97;100.00;99432.94;4992508;28;20081;-61
2023/10/31 00:31:07;;;;;;;12.70;5.47;;;;;;;10.47;100.00;99509.19;4993480;28;20038;-61
2023/10/31 00:33:34;;;;;;;14.05;5.53;;;;;;;10.53;100.00;99509.72;4985555;28;20043;-60
2023/10/31 00:35:59;;;;;;;12.27;5.70;;;;;;;10.53;100.00;99507.09;4986478;28;20034;-61
2023/10/31 00:38:25;;;;;;;10.93;6.15;;;;;;;10.43;100.00;99494.50;5005973;28;20457;-60
2023/10/31 00:40:50;;;;;;;13.35;6.13;;;;;;;10.49;100.00;99508.19;4991638;28;20070;-60
2023/10/31 00:43:15;;;;;;;15.40;6.47;;;;;;;10.12;100.00;99456.66;4994064;28;20038;-61
2023/10/31 00:45:40;;;;;;;11.85;5.72;;;;;;;10.50;100.00;99509.91;4991699;28;20088;-60
2023/10/31 00:48:06;;;;;;;12.32;5.57;;;;;;;10.15;100.00;99456.53;5007077;28;20034;-60
2023/10/31 00:50:31;;;;;;;12.18;5.65;;;;;;;10.17;100.00;99459.06;4992080;28;20031;-61
2023/10/31 00:52:57;;;;;;;13.35;5.45;;;;;;;10.49;100.00;99513.44;4994094;28;20085;-60
2023/10/31 00:55:22;;;;;;;12.07;5.50;;;;;;;10.13;100.00;99473.28;5007002;28;20409;-60
2023/10/31 00:57:47;;;;;;;9.38;4.82;;;;;;;10.16;100.00;99473.97;4992077;28;20053;-60
2023/10/31 01:00:13;;;;;;;10.38;5.38;;;;;;;10.46;100.00;99539.91;4992352;28;20394;-60
2023/10/31 01:02:39;;;;;;;10.23;5.32;;;;;;;10.37;100.00;99519.34;4992321;28;20042;-60
2023/10/31 01:05:04;;;;;;;10.23;6.00;;;;;;;10.39;100.00;99533.25;4978703;28;20085;-61
2023/10/31 01:07:29;;;;;;;12.32;5.95;;;;;;;9.99;100.00;99476.59;4990740;28;20387;-60
2023/10/31 01:09:55;;;;;;;11.85;6.10;;;;;;;10.37;100.00;99535.13;4992949;28;20413;-60
2023/10/31 01:12:20;;;;;;;9.32;5.57;;;;;;;10.40;100.00;99548.13;5005928;28;20238;-60
2023/10/31 01:14:45;;;;;;;13.63;5.90;;;;;;;10.01;100.00;99481.78;4991256;28;20109;-60
2023/10/31 01:17:11;;;;;;;10.88;5.07;;;;;;;10.34;100.00;99548.44;5004396;28;20104;-60
2023/10/31 01:19:36;;;;;;;10.25;4.53;;;;;;;10.37;100.00;99558.81;4991640;28;20068;-60
2023/10/31 01:22:01;;;;;;;10.80;4.25;;;;;;;10.36;100.00;99558.91;4993253;28;20474;-60
2023/10/31 01:24:27;;;;;;;6.90;3.40;;;;;;;10.05;100.00;99506.97;4991125;28;20054;-60
2023/10/31 01:26:52;;;;;;;5.50;2.72;;;;;;;10.43;100.00;99571.63;4993319;28;20034;-61
2023/10/31 01:29:17;;;;;;;9.45;2.63;;;;;;;10.41;100.00;99562.13;4986736;28;20110;-60
2023/10/31 01:31:42;;;;;;;4.55;2.28;;;;;;;10.33;100.00;99569.56;4981559;28;20089;-61
2023/10/31 01:34:08;;;;;;;4.55;1.60;;;;;;;10.39;100.00;99579.78;4992056;28;20046;-61
2023/10/31 01:36:34;;;;;;;6.07;1.73;;;;;;;10.33;100.00;99567.81;4991300;28;20042;-61
2023/10/31 01:38:59;;;;;;;6.22;1.88;;;;;;;10.34;100.00;99581.78;4993211;28;20454;-60
2023/10/31 01:41:25;;;;;;;3.78;1.67;;;;;;;10.01;100.00;99532.56;4993033;28;20077;-61
2023/10/31 01:43:50;;;;;;;4.85;1.58;;;;;;;10.30;100.00;99591.63;4992940;28;20050;-60
2023/10/31 01:46:15;;;;;;;7.03;1.75;;;;;;;10.28;100.00;99582.09;4990677;28;20125;-60
2023/10/31 01:48:41;;;;;;;3.38;0.90;;;;;;;10.23;100.00;99581.47;4991782;28;20042;-60
2023/10/31 01:51:07;;;;;;;2.22;1.08;;;;;;;9.99;100.00;99555.47;4990236;28;20037;-60
2023/10/31 01:53:33;;;;;;;4.32;1.50;;;;;;;10.13;100.00;99587.19;5007982;28;20034;-61
2023/10/31 01:56:01;;;;;;;11.98;1.33;;;;;;;10.12;100.00;99595.16;4991376;28;20043;-60
2023/10/31 01:58:30;;;;;;;7.05;1.30;;;;;;;9.89;100.00;99566.53;5004977;28;20034;-60
2023/10/31 02:00:56;;;;;;;3.65;1.30;;;;;;;9.39;100.00;99496.31;4991676;28;20034;-60
2023/10/31 02:03:21;;;;;;;3.15;1.70;;;;;;;10.08;100.00;99617.25;4991077;28;20045;-60
2023/10/31 02:05:46;;;;;;;3.65;1.88;;;;;;;9.69;100.00;99540.38;4991122;28;20043;-61
2023/10/31 02:08:12;;;;;;;7.72;1.70;;;;;;;9.71;100.00;99549.03;4989351;28;20502;-61
2023/10/31 02:10:37;;;;;;;4.88;1.50;;;;;;;10.00;100.00;99598.38;4990988;28;20057;-61
2023/10/31 02:13:16;;;;;;;3.75;1.08;;;;;;;10.11;100.00;99622.34;4991814;28;20232;-60
2023/10/31 02:15:41;;;;;;;4.75;1.55;;;;;;;10.09;100.00;99621.59;4991640;28;20121;-60
2023/10/31 02:18:07;;;;;;;2.85;0.98;;;;;;;10.13;100.00;99620.53;4990879;28;20078;-61
2023/10/31 02:20:32;;;;;;;3.65;1.35;;;;;;;10.02;100.00;99612.28;4992593;28;20036;-61
2023/10/31 02:22:58;;;;;;;2.90;1.30;;;;;;;9.88;100.00;99586.69;5010976;28;20035;-61
2023/10/31 02:25:23;;;;;;;2.60;1.05;;;;;;;10.02;100.00;99605.25;4994941;28;20133;-61
2023/10/31 02:27:49;;;;;;;5.10;0.90;;;;;;;10.08;100.00;99618.09;4994436;28;20402;-61
2023/10/31 02:30:14;;;;;;;7.18;1.23;;;;;;;9.73;100.00;99561.16;4994926;28;20042;-61
2023/10/31 02:32:40;;;;;;;4.40;1.23;;;;;;;10.09;100.00;99617.19;4994957;28;20443;-61
2023/10/31 02:35:07;;;;;;;4.10;1.20;;;;;;;10.06;100.00;99624.38;5010206;28;20034;-60
2023/10/31 02:37:32;;;;;;;8.40;1.50;;;;;;;10.05;100.00;99620.03;4995531;28;20034;-61
2023/10/31 02:39:58;;;;;;;6.07;1.42;;;;;;;10.13;100.00;99628.41;4995379;28;20154;-61
2023/10/31 02:42:24;;;;;;;4.88;1.10;;;;;;;9.89;100.00;99598.91;4996385;28;20184;-61
2023/10/31 02:44:49;;;;;;;5.80;1.25;;;;;;;10.13;100.00;99631.03;4993158;28;20569;-60
2023/10/31 02:47:14;;;;;;;4.15;1.02;;;;;;;10.18;100.00;99641.34;4992971;28;20066;-60
2023/10/31 02:49:39;;;;;;;4.00;0.95;;;;;;;10.10;100.00;99631.16;4993749;28;20384;-60
2023/10/31 02:52:05;;;;;;;8.77;1.65;;;;;;;10.12;100.00;99639.84;4994853;28;20042;-61
2023/10/31 02:54:31;;;;;;;6.97;1.33;;;;;;;10.10;100.00;99642.53;4993060;28;20125;-60
2023/10/31 02:56:57;;;;;;;5.22;0.93;;;;;;;10.08;100.00;99649.66;4996259;28;20081;-60
2023/10/31 02:59:23;;;;;;;4.90;0.82;;;;;;;9.79;100.00;99597.66;4993931;28;20145;-60
2023/10/31 03:01:48;;;;;;;4.90;0.95;;;;;;;9.71;100.00;99584.03;4993947;28;20058;-61
2023/10/31 03:04:14;;;;;;;4.50;1.10;;;;;;;9.73;100.00;99592.69;4986525;28;20050;-60
2023/10/31 03:06:39;;;;;;;3.88;0.70;;;;;;;10.01;100.00;99640.34;5001312;28;20057;-61
2023/10/31 03:09:04;;;;;;;3.55;0.75;;;;;;;10.03;100.00;99645.56;4993644;28;20054;-61
2023/10/31 03:11:30;;;;;;;7.35;1.17;;;;;;;9.69;100.00;99595.56;4996021;28;20043;-60
2023/10/31 03:13:56;;;;;;;5.60;1.02;;;;;;;9.67;100.00;99593.00;4994630;28;20449;-60
2023/10/31 03:16:22;;;;;;;9.13;1.10;;;;;;;9.99;100.00;99670.28;4993868;28;20061;-60
2023/10/31 03:18:47;;;;;;;4.70;0.80;;;;;;;9.97;100.00;99661.63;5009240;28;20490;-60
2023/10/31 03:21:13;;;;;;;3.08;0.60;;;;;;;9.61;100.00;99617.78;4994940;28;20048;-61
2023/10/31 03:23:38;;;;;;;5.95;0.73;;;;;;;9.71;100.00;99623.47;4991713;28;20044;-60
2023/10/31 03:26:04;;;;;;;4.53;1.00;;;;;;;9.94;100.00;99659.13;4994821;28;20121;-61
2023/10/31 03:28:29;;;;;;;5.68;0.95;;;;;;;9.85;100.00;99655.19;4994365;28;20038;-60
2023/10/31 03:30:54;;;;;;;3.95;1.17;;;;;;;9.93;100.00;99662.69;4993487;28;20042;-60
2023/10/31 03:33:20;;;;;;;3.10;0.65;;;;;;;9.81;100.00;99658.88;4991308;28;20042;-61
2023/10/31 03:35:45;;;;;;;7.57;1.20;;;;;;;9.56;100.00;99609.28;4993803;28;20042;-60
2023/10/31 03:38:11;;;;;;;4.88;1.15;;;;;;;9.91;100.00;99657.50;4990770;28;20524;-61
2023/10/31 03:40:36;;;;;;;2.42;0.90;;;;;;;9.93;100.00;99660.06;4992483;28;20176;-61
2023/10/31 03:43:02;;;;;;;2.00;0.88;;;;;;;9.91;100.00;99656.66;4993132;28;20042;-61
2023/10/31 03:45:27;;;;;;;2.67;0.88;;;;;;;9.53;100.00;99611.19;4994274;28;20034;-61
2023/10/31 03:47:52;;;;;;;2.88;0.70;;;;;;;9.87;100.00;99668.22;5009196;28;20046;-60
2023/10/31 03:50:18;;;;;;;2.38;0.60;;;;;;;9.80;100.00;99672.09;4994496;28;20109;-60
2023/10/31 03:52:43;;;;;;;6.22;0.85;;;;;;;9.81;100.00;99681.66;4995196;28;20038;-60
2023/10/31 03:55:08;;;;;;;2.90;0.60;;;;;;;9.40;100.00;99618.78;4993138;28;20068;-60
2023/10/31 03:57:34;;;;;;;3.72;0.85;;;;;;;9.53;100.00;99633.06;4991447;28;20026;-60
2023/10/31 03:59:59;;;;;;;3.38;0.80;;;;;;;9.45;100.00;99621.22;4992315;28;20065;-60
2023/10/31 04:02:25;;;;;;;1.73;0.68;;;;;;;9.75;100.00;99669.66;4990361;28;20030;-60
2023/10/31 04:04:50;;;;;;;3.58;0.82;;;;;;;9.69;100.00;99666.50;4993843;28;20048;-60
2023/10/31 04:07:15;;;;;;;3.55;1.00;;;;;;;9.79;100.00;99675.63;4991970;28;20046;-61
2023/10/31 04:09:41;;;;;;;3.33;1.08;;;;;;;9.61;100.00;99649.31;4991263;28;20043;-60
2023/10/31 04:12:06;;;;;;;4.00;1.30;;;;;;;9.41;100.00;99617.88;5008136;28;20046;-60
2023/10/31 04:14:32;;;;;;;3.90;1.02;;;;;;;9.76;100.00;99688.91;4988995;28;20058;-60
2023/10/31 04:16:57;;;;;;;5.15;1.08;;;;;;;9.29;100.00;99622.84;4992702;28;20156;-60
2023/10/31 04:19:22;;;;;;;5.07;1.70;;;;;;;9.49;100.00;99663.00;5008764;28;20454;-61
2023/10/31 04:21:48;;;;;;;6.72;1.98;;;;;;;9.77;100.00;99702.00;4992404;28;20035;-60
2023/10/31 04:24:13;;;;;;;4.93;1.65;;;;;;;9.78;100.00;99713.38;5003525;28;20046;-60
2023/10/31 04:26:40;;;;;;;6.70;1.48;;;;;;;9.26;100.00;99621.22;4992571;28;20379;-60
2023/10/31 04:29:05;;;;;;;3.50;1.70;;;;;;;9.27;100.00;99629.94;4992708;28;20041;-60
2023/10/31 04:31:31;;;;;;;4.60;2.05;;;;;;;9.35;100.00;99661.94;4991205;28;20039;-59
2023/10/31 04:33:56;;;;;;;2.80;1.80;;;;;;;9.70;100.00;99713.72;4986870;28;20038;-59
2023/10/31 04:36:21;;;;;;;4.20;2.03;;;;;;;9.63;100.00;99702.63;4990247;28;20045;-59
2023/10/31 04:38:47;;;;;;;5.95;2.40;;;;;;;9.55;100.00;99688.13;4993180;28;20069;-59
2023/10/31 04:41:12;;;;;;;7.28;2.00;;;;;;;9.68;100.00;99712.09;4992967;28;20068;-59
2023/10/31 04:43:41;;;;;;;5.57;2.60;;;;;;;9.66;100.00;99708.69;4988604;28;20046;-59
2023/10/31 04:46:06;;;;;;;8.90;2.90;;;;;;;9.65;100.00;99720.09;4993318;28;20077;-59
2023/10/31 04:48:32;;;;;;;6.72;3.33;;;;;;;9.63;100.00;99723.66;4991357;28;20038;-59
2023/10/31 04:50:58;;;;;;;5.60;3.95;;;;;;;9.38;100.00;99680.19;4990470;28;20038;-59
2023/10/31 04:53:23;;;;;;;10.75;5.47;;;;;;;9.68;100.00;99733.97;4990494;28;20553;-59
2023/10/31 04:55:48;;;;;;;7.60;4.95;;;;;;;9.63;100.00;99728.06;4992146;28;20351;-59
2023/10/31 04:58:13;;;;;;;5.82;4.50;;;;;;;9.43;100.00;99689.56;4992007;28;20038;-59
2023/10/31 05:00:39;;;;;;;6.32;4.15;;;;;;;9.76;100.00;99752.00;4987131;28;20065;-59
2023/10/31 05:03:04;;;;;;;9.48;4.43;;;;;;;9.64;100.00;99732.38;4991267;28;20053;-59
2023/10/31 05:05:29;;;;;;;7.72;4.03;;;;;;;9.78;100.00;99756.25;5007640;28;20058;-59
2023/10/31 05:07:56;;;;;;;7.50;3.67;;;;;;;9.79;100.00;99757.09;4991834;28;20058;-59
2023/10/31 05:10:21;;;;;;;5.57;3.00;;;;;;;9.81;100.00;99771.88;4993074;28;20049;-59
2023/10/31 05:12:46;;;;;;;6.05;3.00;;;;;;;9.79;100.00;99754.47;4993386;28;20402;-59
2023/10/31 05:15:12;;;;;;;6.50;3.08;;;;;;;9.37;100.00;99689.84;4992867;28;20042;-59
2023/10/31 05:17:37;;;;;;;4.07;2.35;;;;;;;9.81;100.00;99761.38;4993700;28;20030;-59
2023/10/31 05:20:03;;;;;;;5.88;2.38;;;;;;;9.52;100.00;99715.41;4992506;28;20038;-59
2023/10/31 05:22:28;;;;;;;6.97;2.25;;;;;;;9.83;100.00;99769.19;4993488;28;20039;-59
2023/10/31 05:24:54;;;;;;;4.32;2.05;;;;;;;9.38;100.00;99699.44;4992439;28;20501;-59
2023/10/31 05:27:20;;;;;;;4.95;1.90;;;;;;;9.49;100.00;99720.81;4971639;28;20042;-59
2023/10/31 05:29:45;;;;;;;7.63;1.80;;;;;;;9.83;100.00;99780.56;4974144;28;20035;-59
2023/10/31 05:32:10;;;;;;;4.30;1.58;;;;;;;9.87;100.00;99773.38;4990591;28;20041;-59
2023/10/31 05:34:36;;;;;;;6.63;1.30;;;;;;;9.85;100.00;99772.59;4991503;28;20046;-60
2023/10/31 05:37:01;;;;;;;6.50;1.60;;;;;;;9.83;100.00;99780.56;4993079;28;20037;-59
2023/10/31 05:39:26;;;;;;;5.95;1.10;;;;;;;9.80;100.00;99777.22;4993170;28;20041;-60
2023/10/31 05:41:52;;;;;;;5.47;1.40;;;;;;;9.78;100.00;99779.91;4993149;28;20152;-59
2023/10/31 05:44:17;;;;;;;3.08;1.30;;;;;;;9.76;100.00;99781.75;4990455;28;20469;-59
2023/10/31 05:46:42;;;;;;;5.57;1.40;;;;;;;9.40;100.00;99717.72;4992340;28;20042;-59
2023/10/31 05:49:08;;;;;;;2.20;0.75;;;;;;;9.74;100.00;99775.72;4993258;28;20478;-59
2023/10/31 05:51:35;;;;;;;5.80;1.23;;;;;;;9.76;100.00;99797.53;4989936;28;20084;-60
2023/10/31 05:54:04;;;;;;;4.13;1.10;;;;;;;9.40;100.00;99733.50;5005823;28;20038;-58
2023/10/31 05:56:29;;;;;;;4.47;1.25;;;;;;;9.37;100.00;99736.28;5007260;28;20704;-59
2023/10/31 05:58:55;;;;;;;3.88;1.30;;;;;;;9.41;100.00;99729.94;4992594;28;20142;-59
2023/10/31 06:01:20;;;;;;;4.72;1.02;;;;;;;9.72;100.00;99803.81;4990298;28;20101;-59
2023/10/31 06:03:46;;;;;;;1.90;0.98;;;;;;;9.71;100.00;99803.91;4989042;28;20038;-59
2023/10/31 06:06:12;;;;;;;6.47;1.50;;;;;;;9.72;100.00;99808.25;4991005;28;20073;-59
2023/10/31 06:08:38;;;;;;;3.25;1.05;;;;;;;9.73;100.00;99805.53;4991351;28;20078;-59
2023/10/31 06:11:04;;;;;;;3.83;1.10;;;;;;;9.69;100.00;99801.34;4991652;28;20521;-59
2023/10/31 06:13:31;;;;;;;2.22;1.30;;;;;;;9.63;100.00;99802.47;4991453;28;20113;-59
2023/10/31 06:15:57;;;;;;;3.35;0.98;;;;;;;9.58;100.00;99814.97;4983232;28;20066;-59
2023/10/31 06:18:23;;;;;;;4.95;1.75;;;;;;;9.53;100.00;99816.94;5007905;28;20034;-60
2023/10/31 06:20:48;;;;;;;6.35;1.45;;;;;;;9.15;100.00;99764.38;4992714;28;20379;-59
2023/10/31 06:23:14;;;;;;;3.80;1.60;;;;;;;9.05;100.00;99756.06;4988036;28;20312;-60
2023/10/31 06:25:39;;;;;;;3.53;1.40;;;;;;;9.42;100.00;99815.72;4990863;28;20050;-59
2023/10/31 06:28:04;;;;;;;2.75;1.00;;;;;;;9.01;100.00;99754.50;4991632;28;20454;-59
2023/10/31 06:30:31;;;;;;;2.13;1.20;;;;;;;9.35;100.00;99814.25;4989726;28;20494;-59
2023/10/31 06:32:56;;;;;;;4.95;1.50;;;;;;;9.35;100.00;99823.00;4988819;28;20058;-59
2023/10/31 06:35:24;;;;;;;4.60;1.45;;;;;;;9.05;100.00;99772.66;5006759;28;20035;-59
2023/10/31 06:37:49;;;;;;;5.88;1.60;;;;;;;9.30;100.00;99811.00;4992393;28;20101;-59
2023/10/31 06:40:15;;;;;;;1.60;1.50;;;;;;;9.35;100.00;99816.88;4991045;28;20490;-59
2023/10/31 06:42:40;;;;;;;6.40;2.47;;;;;;;9.44;100.00;99832.25;4990641;28;20057;-59
2023/10/31 06:45:07;;;;;;;4.60;2.53;;;;;;;9.49;100.00;99841.63;4990667;28;20046;-59
2023/10/31 06:47:32;;;;;;;5.38;1.63;;;;;;;9.19;100.00;99786.97;4986631;28;20038;-59
2023/10/31 06:49:58;;;;;;;7.65;2.40;;;;;;;9.10;100.00;99769.00;4986002;28;20046;-59
2023/10/31 06:52:29;;;;;;;4.65;2.03;;;;;;;9.55;100.00;99848.41;4981810;28;20066;-60
2023/10/31 06:54:54;;;;;;;8.65;2.53;;;;;;;9.23;100.00;99793.78;4973253;28;20042;-59
2023/10/31 06:57:20;;;;;;;5.28;2.15;;;;;;;9.27;100.00;99780.47;4972398;28;20031;-59
2023/10/31 06:59:46;;;;;;;7.53;2.20;;;;;;;9.41;100.00;99790.38;4972952;28;20041;-59
2023/10/31 07:02:11;;;;;;;5.93;2.88;;;;;;;9.48;100.00;99794.44;4983172;28;20042;-59
2023/10/31 07:04:37;;;;;;;6.07;2.70;;;;;;;9.69;100.00;99832.03;4989010;28;20490;-59
2023/10/31 07:07:02;;;;;;;4.47;2.05;;;;;;;9.62;100.00;99813.06;4987024;28;20193;-59
2023/10/31 07:09:28;;;;;;;4.55;2.47;;;;;;;9.63;100.00;99806.03;4989635;28;20211;-59
2023/10/31 07:11:54;;;;;;;3.38;2.20;;;;;;;10.04;100.00;99862.84;4992833;28;20035;-59
2023/10/31 07:14:19;;;;;;;4.65;2.95;;;;;;;9.98;100.00;99848.19;4994896;28;20429;-60
2023/10/31 07:16:44;;;;;;;7.18;3.30;;;;;;;8.92;100.00;99678.78;4994033;28;20519;-58
2023/10/31 07:19:10;;;;;;;6.75;3.05;;;;;;;9.57;100.00;99796.66;5006603;28;20042;-60
2023/10/31 07:21:36;;;;;;;6.50;3.40;;;;;;;9.97;100.00;99870.16;5003252;28;20045;-58
2023/10/31 07:24:01;;;;;;;5.22;3.40;;;;;;;9.64;100.00;99816.47;4985035;28;20207;-59
2023/10/31 07:26:27;;;;;;;6.55;3.70;;;;;;;9.65;100.00;99831.31;5006607;28;20453;-60
2023/10/31 07:28:53;;;;;;;6.93;3.97;;;;;;;9.59;100.00;99821.94;4989208;28;20038;-60
2023/10/31 07:31:18;;;;;;;7.13;3.10;;;;;;;9.83;100.00;99885.69;4990369;28;20480;-59
2023/10/31 07:33:45;;;;;;;9.95;4.13;;;;;;;9.79;100.00;99884.13;4991404;28;20457;-60
2023/10/31 07:36:10;;;;;;;8.95;3.58;;;;;;;9.84;100.00;99904.91;4987390;28;20050;-59
2023/10/31 07:38:35;;;;;;;8.70;3.40;;;;;;;9.82;100.00;99904.16;4993803;28;20536;-59
2023/10/31 07:41:01;;;;;;;5.85;2.90;;;;;;;9.09;100.00;99793.53;4994160;28;20080;-59
2023/10/31 07:43:26;;;;;;;10.10;4.53;;;;;;;9.76;100.00;99907.03;4993711;28;20145;-59
2023/10/31 07:45:51;;;;;;;8.80;4.03;;;;;;;9.44;100.00;99842.75;4995304;28;20121;-59
2023/10/31 07:48:17;;;;;;;8.82;3.92;;;;;;;9.72;100.00;99900.22;4992911;28;20397;-59
2023/10/31 07:50:42;;;;;;;12.65;4.55;;;;;;;9.38;100.00;99840.41;5010140;28;20482;-59
2023/10/31 07:53:07;;;;;;;11.25;4.65;;;;;;;9.82;100.00;99896.25;4992204;28;20072;-59
2023/10/31 07:55:32;;;;;;;13.48;4.70;;;;;;;9.50;100.00;99839.88;4995107;28;20126;-60
2023/10/31 07:57:58;;;;;;;7.28;4.57;;;;;;;9.54;100.00;99846.72;4993632;28;20089;-60
2023/10/31 08:00:23;;;;;;;8.98;4.95;;;;;;;9.92;100.00;99908.09;4992789;28;20038;-59
2023/10/31 08:02:48;;;;;;;8.18;4.50;;;;;;;9.86;100.00;99888.19;4994224;28;20095;-59
2023/10/31 08:05:14;;;;;;;10.27;6.05;;;;;;;9.94;100.00;99904.47;4994785;28;20548;-59
2023/10/31 08:07:39;;;;;;;16.65;6.22;;;;;;;9.55;100.00;99832.63;4993620;28;20050;-59
2023/10/31 08:10:05;;;;;;;12.30;5.45;;;;;;;9.90;100.00;99897.63;4992996;28;20061;-59
2023/10/31 08:12:30;;;;;;;9.95;6.65;;;;;;;9.67;100.00;99862.75;5009618;28;20461;-59
2023/10/31 08:14:56;;;;;;;13.38;6.78;;;;;;;9.56;100.00;99847.47;4993187;28;20034;-59
2023/10/31 08:17:21;;;;;;;12.65;6.20;;;;;;;9.59;100.00;99842.09;4993549;28;20042;-59
2023/10/31 08:19:47;;;;;;;14.43;6.93;;;;;;;10.10;100.00;99921.25;4989220;28;20038;-58
2023/10/31 08:22:13;;;;;;;12.25;6.90;;;;;;;10.18;100.00;99922.72;4992279;28;20042;-57
2023/10/31 08:24:38;;;;;;;14.40;6.43;;;;;;;10.18;100.00;99905.19;4988080;28;20402;-59
2023/10/31 08:27:05;;;;;;;16.33;7.43;;;;;;;10.08;100.00;99873.16;4988767;28;20035;-59
2023/10/31 08:29:30;;;;;;;13.35;7.65;;;;;;;10.55;100.00;99920.97;5007181;28;20065;-59
2023/10/31 08:31:56;;;;;;;12.55;7.10;;;;;;;10.41;100.00;99868.16;4991542;28;20124;-59
2023/10/31 08:34:21;;;;;;;15.10;7.80;;;;;;;10.91;100.00;99931.53;4994200;28;20034;-60
2023/10/31 08:36:46;;;;;;;13.07;7.65;;;;;;;10.93;100.00;99913.88;4994093;28;20478;-60
2023/10/31 08:39:12;;;;;;;16.58;7.00;;;;;;;10.67;100.00;99865.13;4991258;28;20077;-60
2023/10/31 08:41:52;;;;;;;13.52;7.55;;;;;;;10.99;100.00;99912.72;4990940;28;20414;-60
2023/10/31 08:44:17;;;;;;;14.93;7.45;;;;;;;11.14;100.00;99933.91;4989335;28;20037;-60
2023/10/31 08:46:42;;;;;;;17.30;8.10;;;;;;;11.17;100.00;99935.53;4991567;28;20047;-60
2023/10/31 08:49:08;;;;;;;15.43;8.40;;;;;;;10.77;100.00;99859.41;4986827;28;20049;-60
2023/10/31 08:51:33;;;;;;;15.93;7.57;;;;;;;11.18;100.00;99918.78;4983593;28;20050;-59
2023/10/31 08:53:58;;;;;;;13.88;7.35;;;;;;;10.93;100.00;99878.78;4990071;28;20078;-59
2023/10/31 08:56:24;;;;;;;14.95;7.47;;;;;;;11.35;100.00;99944.31;5008242;28;20065;-59
2023/10/31 08:58:49;;;;;;;14.35;8.77;;;;;;;10.98;100.00;99887.31;4993732;28;20039;-60
2023/10/31 09:01:14;;;;;;;17.20;8.48;;;;;;;11.09;100.00;99901.66;4993372;28;20474;-60
2023/10/31 09:03:40;;;;;;;13.68;7.95;;;;;;;11.51;100.00;99947.88;4993400;28;20474;-58
2023/10/31 09:06:05;;;;;;;19.85;8.43;;;;;;;11.64;100.00;99944.56;4993539;28;20605;-59
2023/10/31 09:08:31;;;;;;;13.15;6.72;;;;;;;11.79;100.00;99956.16;4994251;28;20058;-59
2023/10/31 09:10:57;;;;;;;10.93;6.88;;;;;;;11.85;100.00;99955.81;4994421;28;20039;-60
2023/10/31 09:13:23;;;;;;;13.25;7.78;;;;;;;11.49;100.00;99894.41;4993012;28;20393;-58
2023/10/31 09:15:49;;;;;;;19.75;7.57;;;;;;;11.81;100.00;99970.97;4993236;28;20035;-58
2023/10/31 09:18:15;;;;;;;14.43;7.72;;;;;;;11.85;100.00;99964.56;4993527;28;20035;-60
2023/10/31 09:20:40;;;;;;;12.85;6.50;;;;;;;11.73;100.00;99961.72;5008333;28;20034;-59
2023/10/31 09:23:06;;;;;;;12.63;6.55;;;;;;;11.79;100.00;99971.97;4993229;28;20486;-60
2023/10/31 09:25:31;;;;;;;13.18;6.50;;;;;;;11.81;100.00;99978.88;4992752;28;20042;-60
2023/10/31 09:27:58;;;;;;;14.30;6.07;;;;;;;11.70;100.00;99957.44;4992682;28;20125;-59
2023/10/31 09:30:24;;;;;;;13.65;5.80;;;;;;;11.81;100.00;99978.88;4980012;28;20069;-60
2023/10/31 09:32:49;;;;;;;9.13;4.90;;;;;;;11.43;100.00;99921.06;4973710;28;20066;-59
2023/10/31 09:35:15;;;;;;;12.07;5.00;;;;;;;11.49;100.00;99931.31;4990544;28;20401;-59
2023/10/31 09:37:41;;;;;;;14.13;4.72;;;;;;;11.81;100.00;99986.78;4992822;28;20062;-59
2023/10/31 09:40:07;;;;;;;7.75;3.78;;;;;;;11.80;100.00;99977.16;4993039;28;20030;-60
2023/10/31 09:42:32;;;;;;;10.98;3.80;;;;;;;11.84;100.00;99975.22;4988728;28;20034;-61
2023/10/31 09:44:57;;;;;;;8.35;3.70;;;;;;;11.98;100.00;99988.53;5006050;28;20476;-60
2023/10/31 09:47:22;;;;;;;9.05;4.05;;;;;;;11.81;100.00;99949.88;4991166;28;20138;-59
2023/10/31 09:49:48;;;;;;;9.15;3.85;;;;;;;12.12;100.00;99993.94;4981682;28;20541;-59
2023/10/31 09:52:14;;;;;;;9.00;3.20;;;;;;;11.80;100.00;99934.09;4991594;28;20397;-59
2023/10/31 09:54:40;;;;;;;8.15;3.20;;;;;;;11.42;100.00;99871.91;4989941;28;20092;-59
2023/10/31 09:57:05;;;;;;;11.38;6.38;;;;;;;12.06;100.00;99974.94;5007968;28;20027;-58
2023/10/31 09:59:31;;;;;;;10.70;4.00;;;;;;;12.11;100.00;99975.59;4992765;28;20042;-59
2023/10/31 10:01:56;;;;;;;11.70;3.30;;;;;;;11.92;100.00;99938.75;5007823;28;20045;-60
2023/10/31 10:04:21;;;;;;;7.15;3.13;;;;;;;12.04;100.00;99950.44;5007378;28;20057;-59
2023/10/31 10:06:52;;;;;;;7.78;2.40;;;;;;;12.15;100.00;99961.28;4991953;28;20037;-61
2023/10/31 10:09:17;;;;;;;7.85;3.25;;;;;;;12.40;100.00;99996.00;5006009;28;20065;-60
2023/10/31 10:11:42;;;;;;;7.25;2.83;;;;;;;12.25;100.00;99959.88;4988236;28;20030;-59
2023/10/31 10:14:10;;;;;;;7.78;2.40;;;;;;;12.66;100.00;100015.72;4986416;28;20044;-61
2023/10/31 10:16:35;;;;;;;9.05;2.80;;;;;;;12.81;100.00;100018.38;5007246;28;20402;-59
2023/10/31 10:19:19;;;;;;;7.10;2.40;;;;;;;12.88;100.00;100026.81;4992494;28;20081;-59
2023/10/31 10:21:52;;;;;;;9.45;2.30;;;;;;;12.58;100.00;99976.53;4992368;28;20026;-60
2023/10/31 10:24:18;;;;;;;8.07;2.80;;;;;;;12.82;100.00;100024.50;4992558;28;20045;-60
2023/10/31 10:26:44;;;;;;;11.43;2.70;;;;;;;12.95;100.00;100039.63;4992507;28;20041;-60
2023/10/31 10:29:09;;;;;;;11.07;3.10;;;;;;;13.02;100.00;100036.66;4980386;28;20050;-60
2023/10/31 10:31:35;;;;;;;12.63;3.10;;;;;;;13.13;100.00;100044.88;4992403;28;20038;-60
2023/10/31 10:34:01;;;;;;;13.57;4.38;;;;;;;12.96;100.00;100014.03;4992664;28;20045;-60
2023/10/31 10:36:27;;;;;;;12.02;4.45;;;;;;;13.19;100.00;100052.47;4992771;28;20031;-59
2023/10/31 10:38:56;;;;;;;10.25;4.75;;;;;;;13.19;100.00;100050.66;4992367;28;20042;-60
2023/10/31 10:41:25;;;;;;;13.15;4.65;;;;;;;12.89;100.00;99992.41;5009983;28;20026;-59
2023/10/31 10:43:55;;;;;;;11.10;4.80;;;;;;;13.27;100.00;100051.09;4994933;28;20038;-60
2023/10/31 10:46:26;;;;;;;11.97;4.87;;;;;;;13.38;100.00;100045.19;4995347;28;20034;-61
2023/10/31 10:48:57;;;;;;;12.95;5.20;;;;;;;13.23;100.00;100011.69;4995171;28;20425;-59
2023/10/31 10:51:49;;;;;;;11.48;4.35;;;;;;;13.59;100.00;100051.91;5011302;28;20030;-59
2023/10/31 10:54:35;;;;;;;12.27;4.97;;;;;;;13.44;100.00;100034.28;4996632;28;20031;-59
2023/10/31 10:57:15;;;;;;;10.10;4.20;;;;;;;13.58;100.00;100079.28;4995085;28;20030;-59
2023/10/31 10:59:43;;;;;;;12.68;4.15;;;;;;;13.20;100.00;100001.28;5010070;28;20031;-59
2023/10/31 11:02:10;;;;;;;13.05;4.57;;;;;;;13.71;100.00;100080.31;5011185;28;20056;-59
2023/10/31 11:04:36;;;;;;;11.50;3.78;;;;;;;13.32;100.00;100027.03;4995142;28;20050;-60
2023/10/31 11:07:02;;;;;;;10.80;3.78;;;;;;;13.69;100.00;100078.69;4995918;28;20034;-60
2023/10/31 11:09:31;;;;;;;8.90;3.50;;;;;;;13.91;100.00;100071.22;4995837;28;20479;-60
2023/10/31 11:11:58;;;;;;;17.27;3.80;;;;;;;14.07;100.00;100074.66;4995760;28;20034;-60
2023/10/31 11:14:25;;;;;;;13.75;4.80;;;;;;;14.21;100.00;100072.09;4995768;28;20038;-60
2023/10/31 11:16:55;;;;;;;12.65;4.25;;;;;;;14.00;100.00;100020.41;5010605;28;20038;-61
2023/10/31 11:19:22;;;;;;;11.23;4.05;;;;;;;14.06;100.00;99998.88;4994524;28;20606;-60
2023/10/31 11:22:02;;;;;;;15.93;4.50;;;;;;;14.32;100.00;100018.50;4995648;28;20508;-60